Chambersburg, Ohio
Current Conditions -  °F | °C
As of 8:51 PM on Saturday 25 Oct 2014 (Local Time) from KCAK Reporting Station
Clear Clear  
Wind Chill: 62°   Ceiling: Unl
Heat Index: 62°   Visibility: 10mi
Dew Point: 39°   Wind: 14mph
Humidity: 43%   Direction: 280°W
Pressure: 29.78"   Gusts: NA
Location:  40.7427°N, 81.0929°W
Report Text: KCAK 260051Z 28012KT 10SM CLR 17/04 A2978 RMK AO2 SLP084 T01670039
Loading
Personal Weather Stations






























Interactive Weather Map
Tropical Storm Tracking
New forecast layout! Learn more

10-Day Weather Forecast

Advertisements
Track Severe Weather on mobile